Minocqua, Wisconsin
Current Conditions -  °F | °C
As of 9:15 AM on Wednesday 22 Oct 2014 (Local Time) from KARV Reporting Station
Clear Clear  
Wind Chill: 33°   Ceiling: Unl
Heat Index: 39°   Visibility: 10mi
Dew Point: 36°   Wind: 10mph
Humidity: 87%   Direction: 170°S
Pressure: 30.3"   Gusts: 16mph
Location:  45.93°N, 89.73°W
Report Text: KARV 221415Z AUTO 17009G14KT 10SM CLR 04/02 A3030 RMK AO2 T00410021
Loading
Personal Weather Stations






























Interactive Weather Map New forecast layout! Learn more

10-Day Weather Forecast

Advertisements
Track Severe Weather on mobile